Time;durP1;ratioP1;P1;durP2;ratioP2;P2;SDS_P1;SDS_P2;PMS_P1;PMS_P2;Temp;Humidity;BMP_temperature;BMP_pressure;BME280_temperature;BME280_humidity;BME280_pressure;Samples;Min_cycle;Max_cycle;Signal;HPM_P1;HPM_P2
2021/01/21 00:00:54;;;;;;;12.05;1.55;;;7.40;99.90;;;;;;5036570;28;20049;-88
2021/01/21 00:03:20;;;;;;;17.33;2.15;;;7.30;99.90;;;;;;5040933;28;20052;-88
2021/01/21 00:05:47;;;;;;;11.55;1.80;;;7.40;99.90;;;;;;5025449;28;20148;-87
2021/01/21 00:08:13;;;;;;;18.35;2.50;;;7.40;99.90;;;;;;5043968;28;20076;-88
2021/01/21 00:10:40;;;;;;;16.45;3.10;;;7.40;99.90;;;;;;5040872;28;20041;-88
2021/01/21 00:13:06;;;;;;;16.92;2.08;;;7.40;99.90;;;;;;5038495;28;20045;-88
2021/01/21 00:15:33;;;;;;;12.75;1.98;;;7.40;99.90;;;;;;5037646;28;20172;-88
2021/01/21 00:18:00;;;;;;;16.63;2.17;;;7.40;99.90;;;;;;5033357;28;20045;-88
2021/01/21 00:20:27;;;;;;;16.25;2.00;;;7.40;99.90;;;;;;5034269;28;20377;-88
2021/01/21 00:22:53;;;;;;;15.82;2.47;;;7.40;99.90;;;;;;5037751;28;20053;-88
2021/01/21 00:25:20;;;;;;;17.60;2.75;;;7.40;99.90;;;;;;5035140;28;20049;-87
2021/01/21 00:27:46;;;;;;;14.23;2.10;;;7.40;99.90;;;;;;5034752;28;20049;-88
2021/01/21 00:30:13;;;;;;;23.17;2.65;;;7.40;99.90;;;;;;5033358;28;20124;-88
2021/01/21 00:32:40;;;;;;;13.25;2.03;;;7.40;99.90;;;;;;5033736;28;20057;-88
2021/01/21 00:35:07;;;;;;;16.38;2.42;;;7.30;99.90;;;;;;5048635;28;20175;-88
2021/01/21 00:37:34;;;;;;;13.60;2.20;;;7.30;99.90;;;;;;5043219;28;20049;-88
2021/01/21 00:40:00;;;;;;;11.07;1.85;;;7.30;99.90;;;;;;5043725;28;20122;-88
2021/01/21 00:42:27;;;;;;;12.88;2.70;;;7.30;99.90;;;;;;5043556;28;20050;-87
2021/01/21 00:44:53;;;;;;;10.77;1.60;;;7.30;99.90;;;;;;5046575;28;20120;-88
2021/01/21 00:47:20;;;;;;;13.85;2.35;;;7.30;99.90;;;;;;5047971;28;20402;-87
2021/01/21 00:49:47;;;;;;;15.90;2.40;;;7.30;99.90;;;;;;5048265;28;20121;-88
2021/01/21 00:52:14;;;;;;;20.13;2.35;;;7.30;99.90;;;;;;5043529;28;20048;-88
2021/01/21 00:54:40;;;;;;;14.63;2.65;;;7.40;99.90;;;;;;5042310;28;20510;-88
2021/01/21 00:57:07;;;;;;;13.45;2.22;;;7.40;99.90;;;;;;5056214;28;20517;-88
2021/01/21 00:59:34;;;;;;;11.00;2.03;;;7.40;99.90;;;;;;5056632;28;20053;-88
2021/01/21 01:02:00;;;;;;;12.52;2.13;;;7.40;99.90;;;;;;5058947;28;20051;-88
2021/01/21 01:04:28;;;;;;;13.23;2.50;;;7.50;99.90;;;;;;5059322;28;20555;-88
2021/01/21 01:06:54;;;;;;;10.25;1.17;;;7.40;99.90;;;;;;5056867;28;20055;-88
2021/01/21 01:09:21;;;;;;;15.48;1.92;;;7.50;99.90;;;;;;5076446;28;20044;-88
2021/01/21 01:11:48;;;;;;;11.52;1.83;;;7.50;99.90;;;;;;5074231;28;20055;-88
2021/01/21 01:14:14;;;;;;;8.35;1.60;;;7.50;99.90;;;;;;5054664;28;20040;-88
2021/01/21 01:16:41;;;;;;;10.05;1.50;;;7.50;99.90;;;;;;5058777;28;20057;-88
2021/01/21 01:19:07;;;;;;;9.68;1.52;;;7.40;99.90;;;;;;5055881;28;20421;-88
2021/01/21 01:21:34;;;;;;;14.15;1.80;;;7.40;99.90;;;;;;5067217;28;20097;-88
2021/01/21 01:24:00;;;;;;;8.43;1.73;;;7.40;99.90;;;;;;5056961;28;20090;-88
2021/01/21 01:26:27;;;;;;;12.27;1.60;;;7.40;99.90;;;;;;5056938;28;20048;-88
2021/01/21 01:28:53;;;;;;;12.48;1.92;;;7.50;99.90;;;;;;5072705;28;20048;-88
2021/01/21 01:31:20;;;;;;;8.70;1.50;;;7.40;99.90;;;;;;5073763;28;20094;-88
2021/01/21 01:33:48;;;;;;;9.80;1.75;;;7.40;99.90;;;;;;5056363;28;20059;-88
2021/01/21 01:36:15;;;;;;;11.37;1.50;;;7.40;99.90;;;;;;5055435;28;20044;-88
2021/01/21 01:38:42;;;;;;;12.38;1.55;;;7.30;99.90;;;;;;5055417;28;20043;-88
2021/01/21 01:41:09;;;;;;;13.02;1.83;;;7.30;99.90;;;;;;5055419;28;20045;-88
2021/01/21 01:43:36;;;;;;;13.57;1.98;;;7.30;99.90;;;;;;5087002;28;20044;-88
2021/01/21 01:46:04;;;;;;;8.57;1.55;;;7.20;99.90;;;;;;5059153;28;20049;-88
2021/01/21 01:48:31;;;;;;;11.32;2.15;;;7.20;99.90;;;;;;5074835;28;20052;-88
2021/01/21 01:51:02;;;;;;;15.15;1.83;;;7.20;99.90;;;;;;5059188;28;20047;-87
2021/01/21 01:53:30;;;;;;;9.57;1.40;;;7.20;99.90;;;;;;5056087;28;20048;-88
2021/01/21 01:55:56;;;;;;;10.02;1.48;;;7.10;99.90;;;;;;5058124;28;20052;-88
2021/01/21 01:58:25;;;;;;;13.35;2.20;;;7.10;99.90;;;;;;5057686;28;20064;-88
2021/01/21 02:00:54;;;;;;;16.38;1.98;;;7.10;99.90;;;;;;5056180;28;20044;-89
2021/01/21 02:03:21;;;;;;;15.95;2.22;;;7.10;99.90;;;;;;5089430;28;20059;-88
2021/01/21 02:05:49;;;;;;;18.27;2.95;;;7.10;99.90;;;;;;5057900;28;20048;-88
2021/01/21 02:08:17;;;;;;;13.60;2.65;;;7.20;99.90;;;;;;5055156;28;20053;-88
2021/01/21 02:10:46;;;;;;;19.58;3.08;;;7.20;99.90;;;;;;5073710;28;20052;-88
2021/01/21 02:13:18;;;;;;;13.73;2.10;;;7.20;99.90;;;;;;5057848;28;20059;-88
2021/01/21 02:16:09;;;;;;;16.17;2.15;;;7.20;99.90;;;;;;5053502;28;20052;-88
2021/01/21 02:18:46;;;;;;;12.15;2.00;;;7.20;99.90;;;;;;5054375;28;20053;-88
2021/01/21 02:21:40;;;;;;;9.88;1.25;;;7.20;99.90;;;;;;5056441;28;20037;-88
2021/01/21 02:24:33;;;;;;;9.65;1.55;;;7.20;99.90;;;;;;5061026;28;20048;-88
2021/01/21 02:27:11;;;;;;;11.43;2.08;;;7.20;99.90;;;;;;5012483;28;20053;-89
2021/01/21 02:29:41;;;;;;;11.48;1.88;;;7.10;99.90;;;;;;5011820;28;20052;-88
2021/01/21 02:32:10;;;;;;;8.65;2.10;;;7.10;99.90;;;;;;5015150;28;20050;-89
2021/01/21 02:34:43;;;;;;;21.58;2.28;;;7.10;99.90;;;;;;5026295;28;20471;-88
2021/01/21 02:37:22;;;;;;;14.48;2.05;;;7.10;99.90;;;;;;5010537;28;20045;-88
2021/01/21 02:39:51;;;;;;;13.52;1.92;;;7.10;99.90;;;;;;5010037;28;20088;-88
2021/01/21 02:42:18;;;;;;;10.25;1.70;;;7.10;99.90;;;;;;5017410;28;20396;-89
2021/01/21 02:44:44;;;;;;;11.20;1.98;;;7.10;99.90;;;;;;5023911;28;20115;-88
2021/01/21 02:47:11;;;;;;;21.48;2.25;;;7.10;99.90;;;;;;5017398;28;20053;-89
2021/01/21 02:49:39;;;;;;;15.23;2.08;;;7.20;99.90;;;;;;5028455;28;20050;-89
2021/01/21 02:52:26;;;;;;;18.42;2.70;;;7.20;99.90;;;;;;5015718;28;20060;-89
2021/01/21 02:54:53;;;;;;;16.15;2.28;;;7.20;99.90;;;;;;5013518;28;20049;-88
2021/01/21 02:57:44;;;;;;;16.17;2.30;;;7.20;99.90;;;;;;5013409;28;20046;-88
2021/01/21 03:00:12;;;;;;;20.80;2.30;;;7.20;99.90;;;;;;5004729;28;20057;-88
2021/01/21 03:02:45;;;;;;;20.67;2.50;;;7.20;99.90;;;;;;5033689;28;20049;-89
2021/01/21 03:05:17;;;;;;;16.15;2.60;;;7.20;99.90;;;;;;5058870;28;20059;-88
2021/01/21 03:07:44;;;;;;;22.13;2.92;;;7.30;99.90;;;;;;5057595;28;20052;-89
2021/01/21 03:10:16;;;;;;;12.95;2.00;;;7.30;99.90;;;;;;5058276;28;20105;-88
2021/01/21 03:12:43;;;;;;;13.57;2.03;;;7.40;99.90;;;;;;5076427;28;20070;-88
2021/01/21 03:15:09;;;;;;;19.95;2.63;;;7.30;99.90;;;;;;5053116;28;20048;-88
2021/01/21 03:17:36;;;;;;;17.15;1.83;;;7.30;99.90;;;;;;5058310;28;20044;-88
2021/01/21 03:20:03;;;;;;;12.85;1.85;;;7.40;99.90;;;;;;5075744;28;20466;-88
2021/01/21 03:22:30;;;;;;;18.60;1.90;;;7.40;99.90;;;;;;5057842;28;20044;-88
2021/01/21 03:24:56;;;;;;;9.88;1.92;;;7.40;99.90;;;;;;5060974;28;20052;-88
2021/01/21 03:27:23;;;;;;;9.80;1.70;;;7.50;99.90;;;;;;5060730;28;20044;-88
2021/01/21 03:29:50;;;;;;;11.07;1.35;;;7.50;99.90;;;;;;5060739;28;20044;-89
2021/01/21 03:32:16;;;;;;;12.32;2.03;;;7.50;99.90;;;;;;5058872;28;20049;-88
2021/01/21 03:34:43;;;;;;;12.38;1.65;;;7.50;99.90;;;;;;5060162;28;20068;-89
2021/01/21 03:37:09;;;;;;;9.80;2.13;;;7.50;99.90;;;;;;5061063;28;20048;-88
2021/01/21 03:39:37;;;;;;;12.13;1.85;;;7.60;99.90;;;;;;5058881;28;20054;-88
2021/01/21 03:42:03;;;;;;;11.98;2.13;;;7.60;99.90;;;;;;5077581;28;20072;-88
2021/01/21 03:44:30;;;;;;;18.88;2.53;;;7.60;99.90;;;;;;5058098;28;20084;-88
2021/01/21 03:46:56;;;;;;;10.57;1.35;;;7.60;99.90;;;;;;5076250;28;20048;-87
2021/01/21 03:49:23;;;;;;;9.93;1.73;;;7.50;99.90;;;;;;5061058;28;20550;-87
2021/01/21 03:51:50;;;;;;;10.75;1.50;;;7.40;99.90;;;;;;5059326;28;20093;-87
2021/01/21 03:54:17;;;;;;;9.23;1.60;;;7.40;99.90;;;;;;5060663;28;20056;-88
2021/01/21 03:56:43;;;;;;;6.63;1.27;;;7.30;99.90;;;;;;5058109;28;20059;-88
2021/01/21 03:59:10;;;;;;;11.27;1.65;;;7.30;99.90;;;;;;5073865;28;20491;-88
2021/01/21 04:01:37;;;;;;;13.68;1.83;;;7.30;99.90;;;;;;5057611;28;20049;-88
2021/01/21 04:04:04;;;;;;;12.68;1.73;;;7.20;99.90;;;;;;5058131;28;20052;-87
2021/01/21 04:06:30;;;;;;;14.20;1.40;;;7.20;99.90;;;;;;5074821;28;20041;-88
2021/01/21 04:08:56;;;;;;;18.05;2.13;;;7.10;99.90;;;;;;5056962;28;20481;-87
2021/01/21 04:11:23;;;;;;;16.35;1.95;;;7.10;99.90;;;;;;5058904;28;20478;-87
2021/01/21 04:13:49;;;;;;;16.58;2.67;;;7.10;99.90;;;;;;5056018;28;20045;-88
2021/01/21 04:16:16;;;;;;;19.50;2.13;;;7.10;99.90;;;;;;5059622;28;20417;-88
2021/01/21 04:18:42;;;;;;;12.30;2.10;;;7.10;99.90;;;;;;5061182;28;20060;-88
2021/01/21 04:21:09;;;;;;;17.20;1.90;;;7.00;99.90;;;;;;5076512;28;20122;-88
2021/01/21 04:23:35;;;;;;;17.40;2.67;;;7.00;99.90;;;;;;5075282;28;20485;-88
2021/01/21 04:26:03;;;;;;;19.85;2.03;;;7.00;99.90;;;;;;5058693;28;20044;-88
2021/01/21 04:28:31;;;;;;;17.77;2.15;;;7.00;99.90;;;;;;5077195;28;20045;-88
2021/01/21 04:30:58;;;;;;;16.50;2.25;;;7.00;99.90;;;;;;5059405;28;20048;-87
2021/01/21 04:33:25;;;;;;;13.02;2.38;;;7.10;99.90;;;;;;5069088;28;20052;-87
2021/01/21 04:35:52;;;;;;;11.95;2.13;;;7.10;99.90;;;;;;5049708;28;20433;-88
2021/01/21 04:38:19;;;;;;;15.75;2.58;;;7.10;99.90;;;;;;5056724;28;20048;-87
2021/01/21 04:40:45;;;;;;;17.88;1.77;;;7.10;99.90;;;;;;5059506;28;20501;-88
2021/01/21 04:43:12;;;;;;;18.30;3.03;;;7.10;99.90;;;;;;5076497;28;20040;-88
2021/01/21 04:45:38;;;;;;;8.38;1.40;;;7.20;99.90;;;;;;5057080;28;20478;-88
2021/01/21 04:48:07;;;;;;;12.35;1.85;;;7.20;99.90;;;;;;5073517;28;20052;-88
2021/01/21 04:50:34;;;;;;;16.45;2.08;;;7.20;99.90;;;;;;5055784;28;20482;-88
2021/01/21 04:53:03;;;;;;;13.95;2.17;;;7.20;99.90;;;;;;5089640;28;20059;-88
2021/01/21 04:55:41;;;;;;;15.45;3.28;;;7.20;99.90;;;;;;5057970;28;20662;-88
2021/01/21 04:58:31;;;;;;;16.77;2.37;;;7.20;99.90;;;;;;5056441;28;20059;-87
2021/01/21 05:00:59;;;;;;;12.40;1.40;;;7.20;99.90;;;;;;5056606;28;20386;-88
2021/01/21 05:03:27;;;;;;;8.93;1.63;;;7.30;99.90;;;;;;5059798;28;20063;-88
2021/01/21 05:05:55;;;;;;;15.13;2.92;;;7.30;99.90;;;;;;5075618;28;20097;-88
2021/01/21 05:08:22;;;;;;;7.93;1.23;;;7.30;99.90;;;;;;5072274;28;20477;-88
2021/01/21 05:10:50;;;;;;;14.40;1.58;;;7.30;99.90;;;;;;5056907;28;20055;-87
2021/01/21 05:13:18;;;;;;;11.00;1.60;;;7.30;99.90;;;;;;5054438;28;20462;-87
2021/01/21 05:15:44;;;;;;;7.15;1.30;;;7.30;99.90;;;;;;5056050;28;20490;-87
2021/01/21 05:18:14;;;;;;;7.43;1.35;;;7.30;99.90;;;;;;5076132;28;20055;-87
2021/01/21 05:20:41;;;;;;;13.60;1.60;;;7.20;99.90;;;;;;5057433;28;20059;-87
2021/01/21 05:23:07;;;;;;;10.10;1.40;;;7.20;99.90;;;;;;5072711;28;20047;-87
2021/01/21 05:25:34;;;;;;;15.05;1.80;;;7.20;99.90;;;;;;5059138;28;20060;-87
2021/01/21 05:28:06;;;;;;;12.07;1.60;;;7.20;99.90;;;;;;5075466;28;20044;-86
2021/01/21 05:30:33;;;;;;;15.05;1.73;;;7.20;99.90;;;;;;5060699;28;20126;-87
2021/01/21 05:33:01;;;;;;;13.85;1.70;;;7.20;99.90;;;;;;5056824;28;20047;-87
2021/01/21 05:35:28;;;;;;;17.13;2.57;;;7.10;99.90;;;;;;5055636;28;20500;-86
2021/01/21 05:37:58;;;;;;;20.30;2.33;;;7.10;99.90;;;;;;5058128;28;20310;-88
2021/01/21 05:40:27;;;;;;;17.80;2.22;;;7.10;99.90;;;;;;5073279;28;20048;-88
2021/01/21 05:42:56;;;;;;;15.20;1.60;;;7.10;99.90;;;;;;5056341;28;20454;-88
2021/01/21 05:45:24;;;;;;;14.80;1.92;;;7.10;99.90;;;;;;5056851;28;20054;-86
2021/01/21 05:47:58;;;;;;;9.57;1.75;;;7.10;99.90;;;;;;5056752;28;20046;-89
2021/01/21 05:50:27;;;;;;;16.48;1.95;;;7.10;99.90;;;;;;5072433;28;20417;-89
2021/01/21 05:52:55;;;;;;;10.00;1.73;;;7.10;99.90;;;;;;5057022;28;20098;-90
2021/01/21 05:55:26;;;;;;;11.60;2.22;;;7.10;99.90;;;;;;5056659;28;20059;-90
2021/01/21 05:57:54;;;;;;;15.07;1.85;;;7.10;99.90;;;;;;5055950;28;20052;-90
2021/01/21 06:00:24;;;;;;;23.80;2.33;;;7.20;99.90;;;;;;5061164;28;20060;-90
2021/01/21 06:02:52;;;;;;;18.08;2.20;;;7.20;99.90;;;;;;5052964;28;20056;-90
2021/01/21 06:05:23;;;;;;;18.58;2.42;;;7.20;99.90;;;;;;5059718;28;20079;-91
2021/01/21 06:07:52;;;;;;;15.02;2.47;;;7.20;99.90;;;;;;5073250;28;20052;-90
2021/01/21 06:10:23;;;;;;;20.08;2.55;;;7.20;99.90;;;;;;5061323;28;20056;-91
2021/01/21 06:12:57;;;;;;;20.42;1.92;;;7.20;99.90;;;;;;5049833;28;20054;-93
2021/01/21 06:15:31;;;;;;;11.15;2.03;;;7.30;99.90;;;;;;5055832;28;20106;-94
2021/01/21 06:18:22;;;;;;;15.48;2.28;;;7.30;99.90;;;;;;5060372;28;20048;-94
2021/01/21 06:20:48;;;;;;;16.05;2.33;;;7.30;99.90;;;;;;5078510;28;20051;-91
2021/01/21 06:23:21;;;;;;;12.88;2.47;;;7.40;99.90;;;;;;5061095;28;20525;-91
2021/01/21 06:25:52;;;;;;;17.95;2.15;;;7.40;99.90;;;;;;5062506;28;20045;-92
2021/01/21 06:28:24;;;;;;;12.73;2.20;;;7.50;99.90;;;;;;5063030;28;20056;-89
2021/01/21 06:30:57;;;;;;;15.20;2.30;;;7.50;99.90;;;;;;5059809;28;20675;-89
2021/01/21 06:33:35;;;;;;;11.32;2.05;;;7.60;99.90;;;;;;5059758;28;20102;-89
2021/01/21 06:36:07;;;;;;;16.45;1.85;;;7.60;99.90;;;;;;5064300;28;20044;-89
2021/01/21 06:38:44;;;;;;;10.43;2.15;;;7.60;99.90;;;;;;5058712;28;20049;-87
2021/01/21 06:41:19;;;;;;;11.98;2.22;;;7.70;99.90;;;;;;5076157;28;20463;-88
2021/01/21 06:43:46;;;;;;;14.18;2.40;;;7.70;99.90;;;;;;5058838;28;20064;-88
2021/01/21 06:46:14;;;;;;;16.45;2.63;;;7.80;99.90;;;;;;5058538;28;20051;-88
2021/01/21 06:48:50;;;;;;;12.27;1.27;;;7.80;99.90;;;;;;5059742;28;20458;-88
2021/01/21 06:51:19;;;;;;;8.00;1.40;;;7.80;99.90;;;;;;5062949;28;20364;-88
2021/01/21 06:53:48;;;;;;;5.63;1.15;;;7.80;99.90;;;;;;5061566;28;20428;-89
2021/01/21 06:56:14;;;;;;;4.85;0.90;;;7.80;99.90;;;;;;5059114;28;20051;-88
2021/01/21 06:58:48;;;;;;;7.28;1.40;;;7.80;99.90;;;;;;5079552;28;20070;-88
2021/01/21 07:01:32;;;;;;;8.32;1.00;;;7.80;99.90;;;;;;5062274;28;20044;-89
2021/01/21 07:04:21;;;;;;;6.50;1.15;;;7.80;99.90;;;;;;5061300;28;20554;-85
2021/01/21 07:07:00;;;;;;;10.45;1.70;;;7.80;99.90;;;;;;5078164;28;20782;-84
2021/01/21 07:09:27;;;;;;;18.60;1.88;;;7.80;99.90;;;;;;5057383;28;20489;-88
2021/01/21 07:11:59;;;;;;;10.45;1.40;;;7.80;99.90;;;;;;5057096;28;20040;-90
2021/01/21 07:14:31;;;;;;;10.20;1.77;;;7.80;99.90;;;;;;5057303;28;20493;-90
2021/01/21 07:17:00;;;;;;;11.23;1.60;;;7.80;99.90;;;;;;5059825;28;20519;-90
2021/01/21 07:19:42;;;;;;;17.38;2.22;;;7.80;99.90;;;;;;5056868;28;20266;-90
2021/01/21 07:22:22;;;;;;;15.02;1.90;;;7.80;99.90;;;;;;5057659;28;20486;-88
2021/01/21 07:25:01;;;;;;;20.08;3.15;;;7.80;99.90;;;;;;5061424;28;20044;-88
2021/01/21 07:27:29;;;;;;;18.58;2.65;;;7.80;99.90;;;;;;5060097;28;20131;-89
2021/01/21 07:30:23;;;;;;;20.60;3.45;;;7.80;99.90;;;;;;5061343;28;20044;-90
2021/01/21 07:33:21;;;;;;;26.55;2.78;;;7.80;99.90;;;;;;5043954;28;20051;-90
2021/01/21 07:35:49;;;;;;;20.27;2.92;;;7.80;99.90;;;;;;5056995;28;20041;-90
2021/01/21 07:38:41;;;;;;;17.13;2.60;;;7.80;99.90;;;;;;5074626;28;20083;-88
2021/01/21 07:41:10;;;;;;;15.50;2.50;;;7.80;99.90;;;;;;5050558;28;20090;-88
2021/01/21 07:44:06;;;;;;;12.57;2.42;;;7.80;99.90;;;;;;5058713;28;20056;-88
2021/01/21 07:46:32;;;;;;;15.88;2.55;;;7.90;99.90;;;;;;5035377;28;20397;-89
2021/01/21 07:49:21;;;;;;;13.65;2.67;;;7.90;99.90;;;;;;5058329;28;20056;-89
2021/01/21 07:52:17;;;;;;;14.10;2.22;;;7.90;99.90;;;;;;5050469;28;20532;-89
2021/01/21 07:54:48;;;;;;;19.30;2.88;;;7.90;99.90;;;;;;5039491;28;20493;-89
2021/01/21 07:57:21;;;;;;;15.52;2.47;;;8.00;99.90;;;;;;5060542;28;20052;-89
2021/01/21 07:59:58;;;;;;;15.45;2.60;;;8.00;99.90;;;;;;5073473;28;20059;-89
2021/01/21 08:02:43;;;;;;;13.93;1.90;;;8.00;99.90;;;;;;5058314;28;20375;-89
2021/01/21 08:05:11;;;;;;;13.98;2.25;;;8.00;99.90;;;;;;5058808;28;20083;-89
2021/01/21 08:07:55;;;;;;;14.50;2.03;;;8.00;99.90;;;;;;5078081;28;20098;-89
2021/01/21 08:10:27;;;;;;;13.82;1.75;;;8.00;99.90;;;;;;5059302;28;20047;-89
2021/01/21 08:12:56;;;;;;;8.50;1.48;;;8.00;99.90;;;;;;5056943;28;20048;-89
2021/01/21 08:15:26;;;;;;;15.10;1.70;;;8.00;99.90;;;;;;5056022;28;20051;-89
2021/01/21 08:17:53;;;;;;;16.17;2.20;;;8.00;99.90;;;;;;5043595;28;20071;-89
2021/01/21 08:20:22;;;;;;;14.57;1.75;;;8.00;99.90;;;;;;5058177;28;20069;-89
2021/01/21 08:22:52;;;;;;;8.48;1.92;;;8.00;99.90;;;;;;5058168;28;20051;-89
2021/01/21 08:25:19;;;;;;;15.45;1.83;;;8.00;99.90;;;;;;5057744;28;20048;-89
2021/01/21 08:27:48;;;;;;;11.93;1.83;;;8.00;99.90;;;;;;5057060;28;20048;-89
2021/01/21 08:30:18;;;;;;;15.52;2.13;;;8.00;99.90;;;;;;5060194;28;20049;-89
2021/01/21 08:32:50;;;;;;;9.48;1.20;;;8.00;99.90;;;;;;5059576;28;20048;-89
2021/01/21 08:35:23;;;;;;;11.65;1.73;;;8.00;99.90;;;;;;5052728;28;20472;-89
2021/01/21 08:37:51;;;;;;;10.43;2.45;;;8.00;99.90;;;;;;5058762;28;20086;-89
2021/01/21 08:40:19;;;;;;;10.20;1.95;;;7.90;99.90;;;;;;5056608;28;20071;-89
2021/01/21 08:42:51;;;;;;;10.32;2.15;;;8.00;99.90;;;;;;5056469;28;20048;-89
2021/01/21 08:45:19;;;;;;;9.57;2.25;;;8.00;99.90;;;;;;5061329;28;20052;-89
2021/01/21 08:47:50;;;;;;;11.73;2.42;;;8.00;99.90;;;;;;5057457;28;20040;-89
2021/01/21 08:50:18;;;;;;;9.13;1.73;;;8.00;99.90;;;;;;5060708;28;20098;-89
2021/01/21 08:52:58;;;;;;;12.20;2.63;;;8.00;99.90;;;;;;5060441;28;20052;-89
2021/01/21 08:55:40;;;;;;;9.00;2.70;;;7.90;99.90;;;;;;5058421;28;20131;-89
2021/01/21 08:58:08;;;;;;;10.68;3.45;;;8.00;99.90;;;;;;5040335;28;20157;-88
2021/01/21 09:00:38;;;;;;;10.75;3.58;;;8.00;99.90;;;;;;5035283;28;20075;-89
2021/01/21 09:03:05;;;;;;;10.53;4.23;;;8.00;99.90;;;;;;5033403;28;20053;-89
2021/01/21 09:05:32;;;;;;;11.57;3.63;;;8.00;99.90;;;;;;5033018;28;20061;-89
2021/01/21 09:08:08;;;;;;;11.63;2.80;;;8.00;99.90;;;;;;5031335;28;20084;-89
2021/01/21 09:10:45;;;;;;;8.85;1.75;;;7.90;99.90;;;;;;5032055;28;20056;-89
2021/01/21 09:13:18;;;;;;;9.77;2.08;;;8.00;99.90;;;;;;5031653;28;20041;-89
2021/01/21 09:15:55;;;;;;;7.93;1.70;;;8.00;99.90;;;;;;5028125;28;20053;-89
2021/01/21 09:18:23;;;;;;;10.73;1.35;;;8.00;99.90;;;;;;5032956;28;20045;-89
2021/01/21 09:21:09;;;;;;;10.23;2.08;;;8.00;99.90;;;;;;5035838;28;20124;-89
2021/01/21 09:23:37;;;;;;;11.77;2.22;;;8.00;99.90;;;;;;5033592;28;20467;-88
2021/01/21 09:26:15;;;;;;;15.17;2.50;;;8.10;99.90;;;;;;5033799;28;20480;-89
2021/01/21 09:28:55;;;;;;;9.30;1.90;;;8.10;99.90;;;;;;5035748;28;20407;-89
2021/01/21 09:31:23;;;;;;;13.02;3.33;;;8.10;99.90;;;;;;5035359;28;20099;-89
2021/01/21 09:33:51;;;;;;;8.48;1.98;;;8.10;99.90;;;;;;5033857;28;20068;-88
2021/01/21 09:36:25;;;;;;;13.07;2.80;;;8.10;99.90;;;;;;5036932;28;20056;-89
2021/01/21 09:38:52;;;;;;;14.50;2.47;;;8.20;99.90;;;;;;5033596;28;20053;-89
2021/01/21 09:41:18;;;;;;;9.40;2.30;;;8.20;99.90;;;;;;5031417;28;20042;-89
2021/01/21 09:43:45;;;;;;;12.07;1.90;;;8.20;99.90;;;;;;5030286;28;20096;-89
2021/01/21 09:46:20;;;;;;;19.90;2.40;;;8.20;99.90;;;;;;5029301;28;20475;-89
2021/01/21 09:48:46;;;;;;;18.88;2.78;;;8.20;99.90;;;;;;5026010;28;20049;-89
2021/01/21 09:51:13;;;;;;;13.48;2.30;;;8.30;99.90;;;;;;5020346;28;20048;-89
2021/01/21 09:53:39;;;;;;;20.95;2.80;;;8.30;99.90;;;;;;5033819;28;20060;-89
2021/01/21 09:56:06;;;;;;;11.93;2.05;;;8.30;99.90;;;;;;5031105;28;20057;-89
2021/01/21 09:58:32;;;;;;;20.73;2.55;;;8.40;99.90;;;;;;5066292;28;20067;-89
2021/01/21 10:01:00;;;;;;;12.57;2.08;;;8.40;99.90;;;;;;5055754;28;20496;-88
2021/01/21 10:03:45;;;;;;;13.00;2.90;;;8.40;99.90;;;;;;5058332;28;20052;-89
2021/01/21 10:06:12;;;;;;;17.70;2.75;;;8.40;99.90;;;;;;5054076;28;20049;-88
2021/01/21 10:08:38;;;;;;;13.18;2.40;;;8.40;99.90;;;;;;5056422;28;20040;-88
2021/01/21 10:11:05;;;;;;;10.43;1.90;;;8.40;99.90;;;;;;5054831;28;20390;-89
2021/01/21 10:13:31;;;;;;;13.13;1.55;;;8.50;99.90;;;;;;5043326;28;20048;-88
2021/01/21 10:15:58;;;;;;;11.57;1.67;;;8.50;99.90;;;;;;5055765;28;20044;-89
2021/01/21 10:18:24;;;;;;;9.45;1.63;;;8.50;99.90;;;;;;5037962;28;20045;-88
2021/01/21 10:20:53;;;;;;;9.05;1.33;;;8.50;99.90;;;;;;5037830;28;20044;-88
2021/01/21 10:23:20;;;;;;;9.20;1.58;;;8.50;99.90;;;;;;5035517;28;20044;-88
2021/01/21 10:25:48;;;;;;;18.00;2.47;;;8.50;99.90;;;;;;5034475;28;20366;-88
2021/01/21 10:28:16;;;;;;;12.48;1.60;;;8.60;99.90;;;;;;5038071;28;20151;-88
2021/01/21 10:30:43;;;;;;;9.93;1.80;;;8.60;99.90;;;;;;5036835;28;20387;-89
2021/01/21 10:33:11;;;;;;;14.68;1.42;;;8.60;99.90;;;;;;5037302;28;20052;-88
2021/01/21 10:35:38;;;;;;;15.02;1.42;;;8.60;99.90;;;;;;5035229;28;20045;-88
2021/01/21 10:38:05;;;;;;;7.97;1.60;;;8.60;99.90;;;;;;5052662;28;20052;-89
2021/01/21 10:40:31;;;;;;;9.82;1.83;;;8.60;99.90;;;;;;5037027;28;20136;-88
2021/01/21 10:42:58;;;;;;;11.95;2.40;;;8.70;99.90;;;;;;5053736;28;20040;-89
2021/01/21 10:45:25;;;;;;;11.80;2.42;;;8.70;99.90;;;;;;5051182;28;20045;-89
2021/01/21 10:47:52;;;;;;;6.38;2.17;;;8.70;99.90;;;;;;5033899;28;20050;-88
2021/01/21 10:50:19;;;;;;;11.05;2.80;;;8.80;99.90;;;;;;5067151;28;20131;-88
2021/01/21 10:52:45;;;;;;;12.40;3.10;;;8.80;99.90;;;;;;5051348;28;20107;-89
2021/01/21 10:55:12;;;;;;;18.00;6.07;;;8.80;99.90;;;;;;5034185;28;20055;-88
2021/01/21 10:57:38;;;;;;;12.02;2.13;;;8.80;99.90;;;;;;5033929;28;20394;-89
2021/01/21 11:00:06;;;;;;;8.73;1.80;;;8.80;99.90;;;;;;5034993;28;20059;-89
2021/01/21 11:02:32;;;;;;;9.63;1.50;;;8.80;99.90;;;;;;5051859;28;20056;-91
2021/01/21 11:04:59;;;;;;;7.82;1.40;;;8.80;99.90;;;;;;5037526;28;20055;-88
2021/01/21 11:07:27;;;;;;;11.52;1.98;;;8.80;99.90;;;;;;5060955;28;20470;-87
2021/01/21 11:09:54;;;;;;;8.95;2.20;;;8.80;99.90;;;;;;5060611;28;20051;-89
2021/01/21 11:12:20;;;;;;;14.60;1.75;;;8.80;99.90;;;;;;5059441;28;20044;-89
2021/01/21 11:14:53;;;;;;;8.05;1.20;;;8.80;99.90;;;;;;5059795;28;20039;-89
2021/01/21 11:17:21;;;;;;;10.50;1.60;;;8.80;99.90;;;;;;5057808;28;20136;-89
2021/01/21 11:19:47;;;;;;;5.85;1.80;;;8.80;99.90;;;;;;5053423;28;20127;-88
2021/01/21 11:22:14;;;;;;;12.93;3.20;;;8.70;99.90;;;;;;5053761;28;20390;-89
2021/01/21 11:24:40;;;;;;;17.13;4.15;;;8.80;99.90;;;;;;5049611;28;20079;-88
2021/01/21 11:27:07;;;;;;;8.00;2.72;;;8.80;99.90;;;;;;5054628;28;20051;-88
2021/01/21 11:29:33;;;;;;;10.65;3.30;;;8.70;99.90;;;;;;5065850;28;20511;-88
2021/01/21 11:32:00;;;;;;;11.57;2.92;;;8.70;99.90;;;;;;5076949;28;20056;-88
2021/01/21 11:34:28;;;;;;;9.57;2.90;;;8.70;99.90;;;;;;5058917;28;20045;-88
2021/01/21 11:36:54;;;;;;;8.57;2.53;;;8.80;99.90;;;;;;5056013;28;20041;-88
2021/01/21 11:39:21;;;;;;;6.80;2.63;;;8.80;99.90;;;;;;5056966;28;20101;-88
2021/01/21 11:41:47;;;;;;;12.52;2.33;;;8.70;99.90;;;;;;5077084;28;20078;-88
2021/01/21 11:44:14;;;;;;;7.40;1.10;;;8.70;99.90;;;;;;5056198;28;20383;-88
2021/01/21 11:46:40;;;;;;;7.22;0.70;;;8.70;99.90;;;;;;5055033;28;20052;-90
2021/01/21 11:49:07;;;;;;;5.97;0.80;;;8.70;99.90;;;;;;5056999;28;20048;-90
2021/01/21 11:51:34;;;;;;;4.95;1.00;;;8.70;99.90;;;;;;5057293;28;20059;-88
2021/01/21 11:54:00;;;;;;;7.30;1.10;;;8.70;99.90;;;;;;5054953;28;20094;-88
2021/01/21 11:56:27;;;;;;;8.18;1.35;;;8.70;99.90;;;;;;5057248;28;20436;-82
2021/01/21 11:58:53;;;;;;;6.25;1.67;;;8.70;99.90;;;;;;5070006;28;20126;-86
2021/01/21 12:01:19;;;;;;;7.97;2.33;;;8.80;99.90;;;;;;5055972;28;20059;-86
2021/01/21 12:03:46;;;;;;;7.60;2.20;;;8.80;99.90;;;;;;5072701;28;20049;-89
2021/01/21 12:06:13;;;;;;;6.50;2.03;;;8.80;99.90;;;;;;5054358;28;20055;-91
2021/01/21 12:08:39;;;;;;;7.47;2.38;;;8.90;99.90;;;;;;5056535;28;20045;-89
2021/01/21 12:11:06;;;;;;;8.05;2.50;;;8.90;99.90;;;;;;5076159;28;20055;-89
2021/01/21 12:13:32;;;;;;;7.65;2.30;;;8.90;99.90;;;;;;5057976;28;20552;-91
2021/01/21 12:15:59;;;;;;;8.80;2.65;;;9.00;99.90;;;;;;5055256;28;20060;-91
2021/01/21 12:18:26;;;;;;;9.35;5.65;;;9.00;99.90;;;;;;5051441;28;20401;-91
2021/01/21 12:20:53;;;;;;;14.75;12.95;;;9.00;99.90;;;;;;5053619;28;20381;-89
2021/01/21 12:23:20;;;;;;;8.70;4.45;;;9.00;99.90;;;;;;5049696;28;20048;-90
2021/01/21 12:25:47;;;;;;;9.60;3.28;;;9.00;99.90;;;;;;5053760;28;20048;-89
2021/01/21 12:28:13;;;;;;;9.05;4.25;;;9.10;99.90;;;;;;5057785;28;20043;-91
2021/01/21 12:30:40;;;;;;;6.65;3.30;;;9.10;99.90;;;;;;5056227;28;20067;-87
2021/01/21 12:33:07;;;;;;;10.38;4.40;;;9.10;99.90;;;;;;5057259;28;20055;-89
2021/01/21 12:35:33;;;;;;;7.75;3.45;;;9.20;99.90;;;;;;5056107;28;20044;-89
2021/01/21 12:38:00;;;;;;;5.45;2.67;;;9.20;99.90;;;;;;5056835;28;20047;-89
2021/01/21 12:40:27;;;;;;;5.80;2.33;;;9.30;99.90;;;;;;5075315;28;20056;-92
2021/01/21 12:42:53;;;;;;;6.95;2.00;;;9.30;99.90;;;;;;5055823;28;20058;-89
2021/01/21 12:45:21;;;;;;;18.52;3.05;;;9.40;99.90;;;;;;5056711;28;20486;-89
2021/01/21 12:47:48;;;;;;;16.98;2.53;;;9.40;99.90;;;;;;5059019;28;20075;-88
2021/01/21 12:50:15;;;;;;;19.63;3.05;;;9.50;99.90;;;;;;5056765;28;20102;-89
2021/01/21 12:52:41;;;;;;;24.15;3.13;;;9.60;99.90;;;;;;5056112;28;20048;-89
2021/01/21 12:55:08;;;;;;;16.05;2.45;;;9.60;99.90;;;;;;5051645;28;20056;-88
2021/01/21 12:57:34;;;;;;;29.98;4.05;;;9.70;99.90;;;;;;5062768;28;20366;-89
2021/01/21 13:00:00;;;;;;;48.08;5.57;;;9.80;99.90;;;;;;5056333;28;20383;-89
2021/01/21 13:02:27;;;;;;;58.42;8.10;;;9.90;99.90;;;;;;5055646;28;20559;-89